Time;durP1;ratioP1;P1;durP2;ratioP2;P2;SDS_P1;SDS_P2;PMS_P1;PMS_P2;Temp;Humidity;BMP_temperature;BMP_pressure;BME280_temperature;BME280_humidity;BME280_pressure;Samples;Min_cycle;Max_cycle;Signal;HPM_P1;HPM_P2
2023/05/09 00:01:11;;;;;;;2.47;2.00;;;;;;;;;;5096360;28;20230;-56
2023/05/09 00:03:39;;;;;;;11.32;3.78;;;;;;;;;;5096347;28;20203;-51
2023/05/09 00:06:06;;;;;;;8.03;3.80;;;;;;;;;;5096737;28;20206;-53
2023/05/09 00:08:34;;;;;;;7.78;2.75;;;;;;;;;;5096360;28;20202;-51
2023/05/09 00:11:01;;;;;;;4.72;2.63;;;;;;;;;;5096187;28;20218;-56
2023/05/09 00:13:29;;;;;;;8.27;4.40;;;;;;;;;;5095927;28;20210;-53
2023/05/09 00:15:58;;;;;;;4.35;2.50;;;;;;;;;;5096507;28;20203;-54
2023/05/09 00:18:27;;;;;;;4.25;2.40;;;;;;;;;;5095942;28;20206;-54
2023/05/09 00:20:54;;;;;;;5.32;3.00;;;;;;;;;;5096265;28;20252;-53
2023/05/09 00:23:21;;;;;;;5.63;2.53;;;;;;;;;;5096112;28;20314;-54
2023/05/09 00:25:48;;;;;;;2.65;2.00;;;;;;;;;;5095928;28;20248;-55
2023/05/09 00:28:16;;;;;;;3.75;1.92;;;;;;;;;;5095817;28;20655;-55
2023/05/09 00:30:43;;;;;;;2.25;1.60;;;;;;;;;;5095995;28;20638;-53
2023/05/09 00:33:11;;;;;;;6.10;2.33;;;;;;;;;;5095931;28;20202;-53
2023/05/09 00:35:38;;;;;;;7.82;2.75;;;;;;;;;;5095886;28;20224;-53
2023/05/09 00:38:06;;;;;;;3.93;2.40;;;;;;;;;;5094480;28;20205;-52
2023/05/09 00:40:33;;;;;;;3.33;1.85;;;;;;;;;;5095133;28;20276;-51
2023/05/09 00:43:01;;;;;;;6.53;2.78;;;;;;;;;;5096173;28;20202;-53
2023/05/09 00:45:28;;;;;;;5.32;2.65;;;;;;;;;;5095782;28;20202;-51
2023/05/09 00:47:56;;;;;;;7.90;2.83;;;;;;;;;;5095366;28;20203;-52
2023/05/09 00:50:23;;;;;;;4.50;2.77;;;;;;;;;;5095730;28;20674;-51
2023/05/09 00:52:51;;;;;;;5.20;3.07;;;;;;;;;;5094155;28;20226;-53
2023/05/09 00:55:18;;;;;;;5.35;2.90;;;;;;;;;;5095561;28;20211;-55
2023/05/09 00:57:45;;;;;;;3.08;1.85;;;;;;;;;;5095489;28;20199;-51
2023/05/09 01:00:13;;;;;;;3.80;2.37;;;;;;;;;;5095458;28;20198;-52
2023/05/09 01:02:46;;;;;;;4.07;2.77;;;;;;;;;;5095202;28;20206;-54
2023/05/09 01:05:14;;;;;;;7.20;3.05;;;;;;;;;;5094158;28;20301;-54
2023/05/09 01:08:02;;;;;;;3.33;1.87;;;;;;;;;;5094332;28;20214;-54
2023/05/09 01:10:41;;;;;;;4.80;2.42;;;;;;;;;;5093793;28;20293;-55
2023/05/09 01:13:28;;;;;;;4.03;2.33;;;;;;;;;;5094372;28;20206;-52
2023/05/09 01:16:05;;;;;;;2.70;2.00;;;;;;;;;;5077077;28;20202;-51
2023/05/09 01:18:39;;;;;;;3.13;2.40;;;;;;;;;;5094139;28;20194;-50
2023/05/09 01:21:12;;;;;;;8.23;3.57;;;;;;;;;;5076843;28;20199;-54
2023/05/09 01:23:42;;;;;;;5.53;3.30;;;;;;;;;;5077009;28;20203;-52
2023/05/09 01:26:47;;;;;;;4.80;2.93;;;;;;;;;;5093440;28;20640;-53
2023/05/09 01:29:26;;;;;;;6.23;3.30;;;;;;;;;;5095160;28;20206;-55
2023/05/09 01:31:55;;;;;;;5.33;3.50;;;;;;;;;;5093306;28;20228;-52
2023/05/09 01:34:25;;;;;;;7.00;3.53;;;;;;;;;;5076698;28;20210;-51
2023/05/09 01:36:55;;;;;;;6.73;3.37;;;;;;;;;;5093788;28;20202;-51
2023/05/09 01:39:23;;;;;;;12.90;5.70;;;;;;;;;;5093451;28;20206;-54
2023/05/09 01:41:52;;;;;;;9.67;4.27;;;;;;;;;;5093521;28;20241;-51
2023/05/09 01:44:21;;;;;;;7.93;4.17;;;;;;;;;;5094387;28;20252;-53
2023/05/09 01:46:49;;;;;;;9.33;3.77;;;;;;;;;;5076286;28;20259;-54
2023/05/09 01:49:18;;;;;;;6.67;3.20;;;;;;;;;;5093057;28;20670;-51
2023/05/09 01:51:46;;;;;;;5.87;3.30;;;;;;;;;;5093133;28;20226;-52
2023/05/09 01:54:14;;;;;;;8.93;4.83;;;;;;;;;;5092299;28;20728;-53
2023/05/09 01:56:41;;;;;;;8.60;3.93;;;;;;;;;;5076520;28;20233;-51
2023/05/09 01:59:14;;;;;;;9.90;4.33;;;;;;;;;;5094380;28;20214;-52
2023/05/09 02:01:43;;;;;;;6.03;3.03;;;;;;;;;;5076976;28;20667;-56
2023/05/09 02:04:12;;;;;;;6.53;3.90;;;;;;;;;;5093201;28;20203;-50
2023/05/09 02:06:39;;;;;;;7.35;3.50;;;;;;;;;;5093746;28;20607;-54
2023/05/09 02:09:07;;;;;;;7.03;2.80;;;;;;;;;;5076098;28;20202;-51
2023/05/09 02:11:34;;;;;;;14.30;5.87;;;;;;;;;;5093656;28;20218;-54
2023/05/09 02:14:01;;;;;;;9.10;4.00;;;;;;;;;;5091425;28;20206;-52
2023/05/09 02:16:28;;;;;;;8.67;4.03;;;;;;;;;;5091128;28;20212;-51
2023/05/09 02:18:56;;;;;;;7.57;4.10;;;;;;;;;;5090399;28;20680;-54
2023/05/09 02:21:23;;;;;;;7.63;3.60;;;;;;;;;;5090563;28;20244;-51
2023/05/09 02:23:50;;;;;;;6.60;4.13;;;;;;;;;;5073764;28;20198;-55
2023/05/09 02:26:17;;;;;;;4.73;3.17;;;;;;;;;;5090367;28;20214;-52
2023/05/09 02:28:45;;;;;;;4.47;3.20;;;;;;;;;;5090217;28;20198;-52
2023/05/09 02:31:13;;;;;;;8.27;4.97;;;;;;;;;;5090194;28;20202;-51
2023/05/09 02:33:41;;;;;;;9.33;3.70;;;;;;;;;;5090420;28;20207;-55
2023/05/09 02:36:09;;;;;;;5.23;3.40;;;;;;;;;;5092678;28;20216;-52
2023/05/09 02:38:36;;;;;;;6.53;4.00;;;;;;;;;;5093237;28;20199;-51
2023/05/09 02:41:03;;;;;;;7.23;3.57;;;;;;;;;;5093698;28;20563;-54
2023/05/09 02:43:31;;;;;;;7.13;4.00;;;;;;;;;;5092048;28;20623;-52
2023/05/09 02:45:58;;;;;;;4.73;3.50;;;;;;;;;;5092324;28;20195;-51
2023/05/09 02:48:26;;;;;;;5.53;3.17;;;;;;;;;;5092153;28;20203;-52
2023/05/09 02:50:53;;;;;;;4.03;2.80;;;;;;;;;;5093173;28;20233;-50
2023/05/09 02:53:20;;;;;;;7.10;3.67;;;;;;;;;;5093134;28;20230;-50
2023/05/09 02:55:47;;;;;;;5.45;3.08;;;;;;;;;;5092099;28;20206;-55
2023/05/09 02:58:15;;;;;;;5.93;3.40;;;;;;;;;;5093324;28;20191;-52
2023/05/09 03:00:43;;;;;;;6.17;3.33;;;;;;;;;;5091870;28;20625;-54
2023/05/09 03:03:12;;;;;;;10.07;3.83;;;;;;;;;;5091814;28;20203;-51
2023/05/09 03:05:39;;;;;;;5.73;3.43;;;;;;;;;;5095554;28;20754;-53
2023/05/09 03:08:07;;;;;;;7.80;3.60;;;;;;;;;;5097076;28;20217;-51
2023/05/09 03:10:34;;;;;;;5.93;3.50;;;;;;;;;;5096985;28;20297;-51
2023/05/09 03:13:01;;;;;;;6.63;3.37;;;;;;;;;;5096257;28;20233;-53
2023/05/09 03:15:29;;;;;;;5.57;3.33;;;;;;;;;;5096295;28;20199;-51
2023/05/09 03:17:58;;;;;;;8.80;3.60;;;;;;;;;;5096081;28;20209;-55
2023/05/09 03:20:26;;;;;;;6.57;3.47;;;;;;;;;;5095918;28;20597;-51
2023/05/09 03:22:54;;;;;;;6.00;3.00;;;;;;;;;;5095955;28;20203;-51
2023/05/09 03:25:21;;;;;;;4.40;3.20;;;;;;;;;;5095815;28;20648;-52
2023/05/09 03:27:48;;;;;;;4.87;3.07;;;;;;;;;;5097191;28;20256;-57
2023/05/09 03:30:16;;;;;;;7.07;3.60;;;;;;;;;;5087809;28;20264;-52
2023/05/09 03:32:45;;;;;;;5.73;3.40;;;;;;;;;;5086575;28;20219;-54
2023/05/09 03:35:13;;;;;;;7.67;3.63;;;;;;;;;;5092476;28;20199;-51
2023/05/09 03:37:41;;;;;;;5.20;3.03;;;;;;;;;;5094079;28;20207;-57
2023/05/09 03:40:09;;;;;;;6.17;3.53;;;;;;;;;;5093892;28;20253;-51
2023/05/09 03:42:44;;;;;;;6.53;3.30;;;;;;;;;;5089961;28;20194;-51
2023/05/09 03:45:11;;;;;;;5.20;3.07;;;;;;;;;;5092703;28;20217;-53
2023/05/09 03:47:40;;;;;;;6.23;3.27;;;;;;;;;;5077052;28;20207;-58
2023/05/09 03:50:07;;;;;;;5.50;3.37;;;;;;;;;;5084298;28;20205;-54
2023/05/09 03:52:36;;;;;;;5.87;2.57;;;;;;;;;;5077116;28;20239;-57
2023/05/09 03:55:06;;;;;;;3.93;3.00;;;;;;;;;;5074917;28;20656;-58
2023/05/09 03:57:35;;;;;;;8.43;3.80;;;;;;;;;;5075375;28;20192;-57
2023/05/09 04:00:05;;;;;;;6.23;3.30;;;;;;;;;;5076332;28;20615;-53
2023/05/09 04:02:40;;;;;;;5.83;3.33;;;;;;;;;;5077085;28;20223;-55
2023/05/09 04:05:14;;;;;;;7.33;3.37;;;;;;;;;;5091078;28;20737;-53
2023/05/09 04:07:42;;;;;;;8.77;3.97;;;;;;;;;;5057870;28;20238;-54
2023/05/09 04:10:10;;;;;;;11.77;4.87;;;;;;;;;;5074507;28;20301;-54
2023/05/09 04:12:38;;;;;;;10.70;4.80;;;;;;;;;;5094163;28;20231;-56
2023/05/09 04:15:05;;;;;;;7.35;4.25;;;;;;;;;;5094587;28;20223;-56
2023/05/09 04:17:35;;;;;;;6.50;3.80;;;;;;;;;;5084173;28;20284;-55
2023/05/09 04:20:02;;;;;;;6.95;3.50;;;;;;;;;;5074373;28;20228;-55
2023/05/09 04:22:29;;;;;;;5.60;3.10;;;;;;;;;;5075088;28;20245;-55
2023/05/09 04:24:56;;;;;;;4.75;3.00;;;;;;;;;;5075260;28;20273;-55
2023/05/09 04:27:24;;;;;;;4.43;2.73;;;;;;;;;;5074794;28;20723;-54
2023/05/09 04:29:52;;;;;;;6.80;3.10;;;;;;;;;;5074223;28;20301;-54
2023/05/09 04:32:22;;;;;;;5.97;3.00;;;;;;;;;;5072969;28;20239;-57
2023/05/09 04:34:49;;;;;;;5.95;3.10;;;;;;;;;;5073920;28;20219;-53
2023/05/09 04:37:21;;;;;;;8.85;2.92;;;;;;;;;;5073385;28;20696;-54
2023/05/09 04:39:49;;;;;;;5.60;3.30;;;;;;;;;;5073355;28;20227;-55
2023/05/09 04:42:23;;;;;;;3.90;2.45;;;;;;;;;;5073655;28;20287;-58
2023/05/09 04:44:50;;;;;;;3.50;2.42;;;;;;;;;;5073471;28;20219;-55
2023/05/09 04:47:20;;;;;;;5.63;2.65;;;;;;;;;;5072477;28;20219;-52
2023/05/09 04:49:47;;;;;;;3.25;2.38;;;;;;;;;;5071562;28;20220;-52
2023/05/09 04:52:14;;;;;;;3.78;2.60;;;;;;;;;;5074697;28;20312;-56
2023/05/09 04:54:42;;;;;;;4.47;2.85;;;;;;;;;;5086253;28;20222;-54
2023/05/09 04:57:10;;;;;;;7.93;3.28;;;;;;;;;;5091579;28;20359;-56
2023/05/09 04:59:47;;;;;;;4.72;2.45;;;;;;;;;;5080781;28;20321;-55
2023/05/09 05:02:15;;;;;;;6.80;3.10;;;;;;;;;;5055588;28;20230;-55
2023/05/09 05:04:42;;;;;;;6.47;2.03;;;;;;;;;;5073511;28;20223;-57
2023/05/09 05:07:10;;;;;;;5.10;2.42;;;;;;;;;;5073024;28;20224;-55
2023/05/09 05:09:37;;;;;;;2.95;2.17;;;;;;;;;;5073034;28;20772;-56
2023/05/09 05:12:06;;;;;;;5.10;2.67;;;;;;;;;;5073865;28;20227;-54
2023/05/09 05:14:36;;;;;;;9.05;3.80;;;;;;;;;;5092594;28;20219;-55
2023/05/09 05:17:07;;;;;;;9.88;4.25;;;;;;;;;;5093916;28;20194;-57
2023/05/09 05:19:34;;;;;;;9.63;4.32;;;;;;;;;;5093464;28;20202;-57
2023/05/09 05:22:03;;;;;;;5.68;3.13;;;;;;;;;;5093011;28;20215;-56
2023/05/09 05:24:31;;;;;;;6.47;3.22;;;;;;;;;;5092887;28;20213;-51
2023/05/09 05:26:58;;;;;;;4.60;2.90;;;;;;;;;;5092800;28;20203;-55
2023/05/09 05:29:25;;;;;;;3.83;2.22;;;;;;;;;;5092672;28;20202;-55
2023/05/09 05:31:52;;;;;;;3.38;1.80;;;;;;;;;;5093998;28;20206;-56
2023/05/09 05:34:20;;;;;;;5.63;2.60;;;;;;;;;;5092652;28;20207;-55
2023/05/09 05:36:47;;;;;;;3.38;2.42;;;;;;;;;;5093506;28;20210;-57
2023/05/09 05:39:15;;;;;;;3.70;1.92;;;;;;;;;;5093391;28;20213;-57
2023/05/09 05:41:42;;;;;;;2.58;1.55;;;;;;;;;;5093126;28;20234;-54
2023/05/09 05:44:09;;;;;;;1.77;1.30;;;;;;;;;;5093165;28;20557;-53
2023/05/09 05:46:38;;;;;;;2.70;1.70;;;;;;;;;;5093324;28;20199;-56
2023/05/09 05:49:05;;;;;;;4.40;2.35;;;;;;;;;;5093409;28;20558;-55
2023/05/09 05:51:33;;;;;;;2.70;1.90;;;;;;;;;;5093104;28;20656;-57
2023/05/09 05:54:01;;;;;;;8.38;2.33;;;;;;;;;;5093205;28;20234;-56
2023/05/09 05:56:29;;;;;;;1.80;1.50;;;;;;;;;;5093589;28;20202;-56
2023/05/09 05:58:56;;;;;;;9.18;3.92;;;;;;;;;;5076663;28;20202;-56
2023/05/09 06:01:24;;;;;;;1.90;1.27;;;;;;;;;;5092796;28;20571;-58
2023/05/09 06:03:53;;;;;;;1.45;1.25;;;;;;;;;;5094029;28;20202;-57
2023/05/09 06:06:25;;;;;;;2.03;1.52;;;;;;;;;;5093284;28;20198;-57
2023/05/09 06:08:54;;;;;;;2.22;1.48;;;;;;;;;;5092743;28;20565;-56
2023/05/09 06:11:22;;;;;;;5.25;2.58;;;;;;;;;;5092730;28;20708;-57
2023/05/09 06:13:49;;;;;;;3.33;2.13;;;;;;;;;;5093731;28;20233;-55
2023/05/09 06:16:16;;;;;;;4.25;2.65;;;;;;;;;;5092949;28;20211;-56
2023/05/09 06:18:50;;;;;;;1.80;1.23;;;;;;;;;;5092885;28;20256;-56
2023/05/09 06:21:21;;;;;;;2.83;1.45;;;;;;;;;;5093096;28;20183;-55
2023/05/09 06:23:47;;;;;;;2.38;1.77;;;;;;;;;;5093690;28;20218;-55
2023/05/09 06:26:35;;;;;;;1.75;1.33;;;;;;;;;;5093637;28;20562;-55
2023/05/09 06:29:04;;;;;;;5.82;1.75;;;;;;;;;;5092695;28;20198;-57
2023/05/09 06:31:37;;;;;;;4.55;2.30;;;;;;;;;;5093833;28;20206;-57
2023/05/09 06:34:04;;;;;;;3.72;1.90;;;;;;;;;;5093537;28;20222;-55
2023/05/09 06:36:33;;;;;;;2.28;1.30;;;;;;;;;;5093500;28;20663;-56
2023/05/09 06:39:00;;;;;;;2.75;1.80;;;;;;;;;;5093335;28;20202;-54
2023/05/09 06:41:27;;;;;;;4.40;1.73;;;;;;;;;;5093972;28;20238;-55
2023/05/09 06:43:55;;;;;;;6.75;3.05;;;;;;;;;;5093599;28;20226;-57
2023/05/09 06:46:22;;;;;;;4.40;2.22;;;;;;;;;;5093387;28;20673;-56
2023/05/09 06:48:49;;;;;;;2.20;1.25;;;;;;;;;;5093563;28;20214;-54
2023/05/09 06:51:16;;;;;;;3.28;1.92;;;;;;;;;;5093651;28;20199;-55
2023/05/09 06:53:43;;;;;;;3.40;1.85;;;;;;;;;;5093830;28;20234;-57
2023/05/09 06:56:10;;;;;;;5.55;2.55;;;;;;;;;;5093373;28;20667;-56
2023/05/09 06:58:37;;;;;;;3.10;1.65;;;;;;;;;;5093717;28;20213;-57
2023/05/09 07:01:05;;;;;;;1.73;1.23;;;;;;;;;;5092431;28;20210;-58
2023/05/09 07:03:32;;;;;;;1.75;1.20;;;;;;;;;;5093237;28;20233;-57
2023/05/09 07:05:59;;;;;;;2.60;1.33;;;;;;;;;;5093800;28;20211;-56
2023/05/09 07:08:26;;;;;;;2.08;1.52;;;;;;;;;;5093784;28;20202;-56
2023/05/09 07:10:53;;;;;;;2.33;1.38;;;;;;;;;;5093284;28;20207;-56
2023/05/09 07:13:20;;;;;;;2.97;1.15;;;;;;;;;;5093522;28;20219;-58
2023/05/09 07:15:48;;;;;;;1.52;1.08;;;;;;;;;;5093169;28;20207;-56
2023/05/09 07:18:15;;;;;;;3.10;1.63;;;;;;;;;;5093640;28;20214;-56
2023/05/09 07:20:42;;;;;;;2.88;1.58;;;;;;;;;;5093615;28;20209;-56
2023/05/09 07:23:09;;;;;;;2.08;1.13;;;;;;;;;;5093425;28;20294;-55
2023/05/09 07:25:36;;;;;;;4.30;1.23;;;;;;;;;;5093240;28;20230;-57
2023/05/09 07:28:04;;;;;;;2.20;1.30;;;;;;;;;;5093284;28;20234;-53
2023/05/09 07:30:31;;;;;;;3.95;2.08;;;;;;;;;;5093344;28;20199;-56
2023/05/09 07:33:00;;;;;;;2.38;1.77;;;;;;;;;;5092923;28;20233;-55
2023/05/09 07:35:27;;;;;;;2.17;1.42;;;;;;;;;;5092965;28;20366;-53
2023/05/09 07:37:54;;;;;;;2.10;1.40;;;;;;;;;;5093183;28;20285;-57
2023/05/09 07:40:22;;;;;;;0.95;0.90;;;;;;;;;;5093035;28;20227;-55
2023/05/09 07:42:50;;;;;;;1.38;1.00;;;;;;;;;;5093449;28;20213;-57
2023/05/09 07:45:17;;;;;;;1.85;0.93;;;;;;;;;;5092835;28;20311;-54
2023/05/09 07:47:51;;;;;;;1.35;0.90;;;;;;;;;;5093242;28;20209;-55
2023/05/09 07:50:18;;;;;;;1.70;1.00;;;;;;;;;;5093183;28;20213;-55
2023/05/09 07:52:45;;;;;;;0.95;0.85;;;;;;;;;;5096230;28;20316;-54
2023/05/09 07:55:12;;;;;;;1.08;0.98;;;;;;;;;;5096438;28;20205;-56
2023/05/09 07:57:40;;;;;;;2.45;0.90;;;;;;;;;;5096658;28;20260;-55
2023/05/09 08:00:07;;;;;;;0.95;0.88;;;;;;;;;;5096121;28;20199;-54
2023/05/09 08:02:40;;;;;;;1.10;0.70;;;;;;;;;;5096459;28;20198;-58
2023/05/09 08:05:10;;;;;;;1.75;0.98;;;;;;;;;;5096277;28;20770;-55
2023/05/09 08:07:37;;;;;;;1.63;0.90;;;;;;;;;;5096425;28;20668;-54
2023/05/09 08:10:05;;;;;;;1.27;0.82;;;;;;;;;;5096206;28;20663;-56
2023/05/09 08:12:32;;;;;;;1.30;0.90;;;;;;;;;;5096101;28;20237;-58
2023/05/09 08:14:59;;;;;;;0.75;0.75;;;;;;;;;;5096305;28;20203;-56
2023/05/09 08:17:26;;;;;;;2.00;0.90;;;;;;;;;;5096317;28;20226;-56
2023/05/09 08:19:54;;;;;;;0.80;0.80;;;;;;;;;;5096258;28;20559;-57
2023/05/09 08:22:21;;;;;;;1.23;0.85;;;;;;;;;;5096172;28;20213;-55
2023/05/09 08:24:48;;;;;;;1.10;0.90;;;;;;;;;;5096030;28;20244;-53
2023/05/09 08:27:15;;;;;;;3.28;1.98;;;;;;;;;;5095975;28;20213;-56
2023/05/09 08:29:42;;;;;;;1.67;0.88;;;;;;;;;;5095722;28;20675;-55
2023/05/09 08:32:09;;;;;;;0.95;0.73;;;;;;;;;;5095840;28;20202;-57
2023/05/09 08:34:36;;;;;;;1.45;1.00;;;;;;;;;;5095992;28;20253;-53
2023/05/09 08:37:03;;;;;;;1.88;1.35;;;;;;;;;;5095820;28;20537;-57
2023/05/09 08:39:33;;;;;;;1.83;1.20;;;;;;;;;;5095910;28;20199;-54
2023/05/09 08:42:01;;;;;;;0.98;0.85;;;;;;;;;;5095884;28;20203;-57
2023/05/09 08:44:29;;;;;;;1.38;0.90;;;;;;;;;;5094854;28;20199;-56
2023/05/09 08:47:01;;;;;;;1.80;1.20;;;;;;;;;;5095811;28;20198;-54
2023/05/09 08:49:28;;;;;;;1.00;0.70;;;;;;;;;;5095527;28;20253;-55
2023/05/09 08:51:56;;;;;;;2.88;0.90;;;;;;;;;;5094633;28;20210;-54
2023/05/09 08:54:23;;;;;;;1.65;1.00;;;;;;;;;;5095843;28;20254;-56
2023/05/09 08:56:51;;;;;;;1.92;0.93;;;;;;;;;;5095579;28;20202;-55
2023/05/09 08:59:18;;;;;;;0.80;0.75;;;;;;;;;;5095520;28;20210;-55
2023/05/09 09:01:46;;;;;;;0.82;0.80;;;;;;;;;;5094828;28;20199;-58
2023/05/09 09:04:13;;;;;;;1.70;1.20;;;;;;;;;;5095284;28;20213;-56
2023/05/09 09:06:41;;;;;;;2.17;0.95;;;;;;;;;;5095085;28;20230;-58
2023/05/09 09:09:09;;;;;;;0.95;0.70;;;;;;;;;;5093876;28;20198;-55
2023/05/09 09:11:37;;;;;;;1.15;0.88;;;;;;;;;;5093977;28;20198;-55
2023/05/09 09:14:14;;;;;;;1.92;1.00;;;;;;;;;;5095109;28;20227;-56
2023/05/09 09:16:43;;;;;;;1.08;0.93;;;;;;;;;;5094911;28;20643;-56
2023/05/09 09:19:12;;;;;;;1.83;1.30;;;;;;;;;;5094784;28;20230;-53
2023/05/09 09:21:41;;;;;;;2.83;1.10;;;;;;;;;;5093914;28;20205;-55
2023/05/09 09:24:11;;;;;;;11.40;4.45;;;;;;;;;;5095345;28;20202;-53
2023/05/09 09:26:44;;;;;;;6.32;2.42;;;;;;;;;;5094934;28;20214;-57
2023/05/09 09:29:12;;;;;;;0.90;0.80;;;;;;;;;;5094974;28;20187;-55
2023/05/09 09:31:43;;;;;;;1.13;0.80;;;;;;;;;;5094514;28;20206;-54
2023/05/09 09:34:12;;;;;;;3.10;1.27;;;;;;;;;;5094570;28;20215;-56
2023/05/09 09:36:39;;;;;;;20.75;7.30;;;;;;;;;;5094842;28;20327;-55
2023/05/09 09:39:07;;;;;;;20.27;6.85;;;;;;;;;;5094984;28;20199;-55
2023/05/09 09:41:39;;;;;;;21.27;7.70;;;;;;;;;;5094952;28;20245;-52
2023/05/09 09:44:14;;;;;;;8.70;3.80;;;;;;;;;;5094491;28;20286;-56
2023/05/09 09:46:52;;;;;;;2.10;1.42;;;;;;;;;;5094730;28;20220;-56
2023/05/09 09:49:24;;;;;;;3.10;1.73;;;;;;;;;;5094520;28;20198;-53
2023/05/09 09:51:52;;;;;;;4.35;1.80;;;;;;;;;;5094266;28;20206;-58
2023/05/09 09:54:20;;;;;;;9.30;3.53;;;;;;;;;;5094177;28;20694;-55
2023/05/09 09:56:50;;;;;;;20.05;7.18;;;;;;;;;;5094133;28;20284;-55
2023/05/09 09:59:23;;;;;;;14.07;5.25;;;;;;;;;;5094694;28;20206;-56
2023/05/09 10:02:03;;;;;;;12.65;4.68;;;;;;;;;;5092669;28;20198;-54
2023/05/09 10:04:36;;;;;;;5.80;2.60;;;;;;;;;;5094352;28;20264;-54
2023/05/09 10:07:09;;;;;;;1.85;1.27;;;;;;;;;;5094013;28;20213;-52
2023/05/09 10:09:41;;;;;;;1.67;1.20;;;;;;;;;;5093971;28;20207;-56
2023/05/09 10:12:08;;;;;;;3.47;1.25;;;;;;;;;;5093764;28;20264;-56
2023/05/09 10:14:37;;;;;;;9.60;3.47;;;;;;;;;;5092192;28;20226;-57
2023/05/09 10:17:04;;;;;;;12.13;4.35;;;;;;;;;;5094008;28;20203;-55
2023/05/09 10:19:32;;;;;;;3.15;1.20;;;;;;;;;;5093660;28;20281;-56
2023/05/09 10:22:04;;;;;;;1.25;0.98;;;;;;;;;;5093733;28;20682;-57
2023/05/09 10:24:31;;;;;;;1.17;0.75;;;;;;;;;;5092620;28;20743;-54
2023/05/09 10:27:05;;;;;;;1.23;0.90;;;;;;;;;;5093995;28;20199;-55
2023/05/09 10:29:35;;;;;;;2.15;0.68;;;;;;;;;;5093893;28;20202;-55
2023/05/09 10:32:25;;;;;;;1.70;1.00;;;;;;;;;;5093725;28;20651;-55
2023/05/09 10:34:57;;;;;;;1.70;0.85;;;;;;;;;;5092674;28;20252;-54
2023/05/09 10:37:24;;;;;;;1.13;0.88;;;;;;;;;;5092438;28;20236;-53
2023/05/09 10:39:53;;;;;;;2.03;1.10;;;;;;;;;;5092362;28;20323;-56
2023/05/09 10:42:22;;;;;;;1.65;1.00;;;;;;;;;;5093555;28;20203;-55
2023/05/09 10:44:52;;;;;;;1.35;0.80;;;;;;;;;;5092288;28;20249;-57
2023/05/09 10:47:20;;;;;;;2.08;1.05;;;;;;;;;;5094011;28;20237;-55
2023/05/09 10:49:48;;;;;;;1.83;0.93;;;;;;;;;;5092595;28;20198;-53
2023/05/09 10:52:15;;;;;;;0.80;0.73;;;;;;;;;;5092695;28;20203;-56
2023/05/09 10:54:42;;;;;;;2.80;1.08;;;;;;;;;;5093372;28;20222;-58
2023/05/09 10:57:10;;;;;;;1.35;1.00;;;;;;;;;;5093463;28;20210;-53
2023/05/09 10:59:41;;;;;;;1.80;1.15;;;;;;;;;;5093322;28;20542;-54
2023/05/09 11:02:12;;;;;;;1.50;1.05;;;;;;;;;;5093768;28;20213;-55
2023/05/09 11:04:39;;;;;;;0.75;0.70;;;;;;;;;;5092336;28;20203;-55
2023/05/09 11:07:26;;;;;;;1.15;0.82;;;;;;;;;;5093416;28;20225;-56
2023/05/09 11:10:13;;;;;;;2.28;1.23;;;;;;;;;;5093622;28;20233;-56
2023/05/09 11:12:57;;;;;;;1.20;1.00;;;;;;;;;;5093566;28;20193;-56
2023/05/09 11:15:26;;;;;;;1.90;1.10;;;;;;;;;;5093514;28;20222;-54
2023/05/09 11:18:07;;;;;;;1.00;0.90;;;;;;;;;;5093302;28;20206;-56
2023/05/09 11:20:35;;;;;;;1.77;0.90;;;;;;;;;;5092350;28;20222;-56
2023/05/09 11:23:03;;;;;;;1.70;0.98;;;;;;;;;;5091892;28;20225;-59
2023/05/09 11:25:30;;;;;;;1.83;0.85;;;;;;;;;;5095106;28;20203;-54
2023/05/09 11:28:00;;;;;;;1.17;0.80;;;;;;;;;;5090751;28;20206;-54
2023/05/09 11:30:41;;;;;;;1.30;0.80;;;;;;;;;;5096342;28;20281;-56
2023/05/09 11:33:26;;;;;;;1.90;1.05;;;;;;;;;;5095964;28;20227;-56
2023/05/09 11:36:28;;;;;;;1.48;0.90;;;;;;;;;;5096277;28;20279;-54
2023/05/09 11:39:07;;;;;;;1.65;0.95;;;;;;;;;;5096212;28;20275;-56
2023/05/09 11:41:42;;;;;;;1.08;0.85;;;;;;;;;;5096952;28;20235;-57
2023/05/09 11:44:18;;;;;;;1.17;0.90;;;;;;;;;;5096128;28;20231;-55
2023/05/09 11:46:47;;;;;;;1.35;0.98;;;;;;;;;;5096894;28;20193;-55
2023/05/09 11:49:15;;;;;;;3.70;1.65;;;;;;;;;;5097028;28;20202;-60
2023/05/09 11:51:42;;;;;;;1.45;1.02;;;;;;;;;;5096360;28;20195;-59
2023/05/09 11:54:11;;;;;;;1.20;0.90;;;;;;;;;;5096475;28;20222;-61
2023/05/09 11:56:40;;;;;;;1.33;0.90;;;;;;;;;;5096735;28;20199;-60
2023/05/09 11:59:09;;;;;;;3.67;1.63;;;;;;;;;;5095369;28;20538;-61
2023/05/09 12:01:36;;;;;;;3.85;1.20;;;;;;;;;;5095181;28;20199;-59
2023/05/09 12:04:05;;;;;;;1.38;1.00;;;;;;;;;;5096634;28;20208;-60
2023/05/09 12:06:32;;;;;;;1.05;0.90;;;;;;;;;;5095412;28;20248;-60
2023/05/09 12:08:59;;;;;;;1.77;0.93;;;;;;;;;;5096266;28;20662;-60
2023/05/09 12:11:31;;;;;;;1.88;1.00;;;;;;;;;;5091499;28;20199;-60
2023/05/09 12:13:58;;;;;;;1.25;0.93;;;;;;;;;;5086120;28;20571;-60
2023/05/09 12:16:25;;;;;;;3.72;0.90;;;;;;;;;;5096078;28;20523;-59
2023/05/09 12:18:53;;;;;;;1.00;0.85;;;;;;;;;;5096271;28;20562;-60
2023/05/09 12:21:20;;;;;;;3.53;1.10;;;;;;;;;;5096596;28;20199;-59
2023/05/09 12:23:49;;;;;;;1.02;0.80;;;;;;;;;;5095808;28;20195;-60
2023/05/09 12:26:21;;;;;;;1.77;1.10;;;;;;;;;;5096196;28;20224;-60
2023/05/09 12:28:49;;;;;;;2.28;1.20;;;;;;;;;;5095455;28;20201;-61
2023/05/09 12:31:16;;;;;;;1.60;0.80;;;;;;;;;;5094789;28;20264;-59
2023/05/09 12:33:44;;;;;;;2.80;0.90;;;;;;;;;;5088245;28;20219;-59
2023/05/09 12:36:12;;;;;;;2.40;0.82;;;;;;;;;;5093058;28;20221;-59
2023/05/09 12:38:41;;;;;;;1.00;0.90;;;;;;;;;;5087211;28;20682;-60
2023/05/09 12:41:09;;;;;;;1.10;0.80;;;;;;;;;;5092957;28;20237;-59
2023/05/09 12:43:56;;;;;;;2.25;1.00;;;;;;;;;;5094512;28;20219;-60
2023/05/09 12:46:23;;;;;;;2.38;1.35;;;;;;;;;;5093180;28;20230;-59
2023/05/09 12:48:51;;;;;;;1.63;1.00;;;;;;;;;;5093698;28;20237;-60
2023/05/09 12:51:20;;;;;;;1.48;1.10;;;;;;;;;;5094434;28;20221;-60
2023/05/09 12:53:47;;;;;;;0.90;0.80;;;;;;;;;;5091527;28;20210;-60
2023/05/09 12:56:16;;;;;;;1.85;1.20;;;;;;;;;;5094070;28;20768;-60
2023/05/09 12:58:51;;;;;;;1.15;1.00;;;;;;;;;;5091544;28;20573;-58
2023/05/09 13:01:26;;;;;;;1.40;0.82;;;;;;;;;;5094155;28;20214;-58
2023/05/09 13:04:04;;;;;;;1.58;0.80;;;;;;;;;;5094181;28;20229;-58
2023/05/09 13:06:32;;;;;;;0.80;0.77;;;;;;;;;;5094576;28;20231;-57
2023/05/09 13:09:04;;;;;;;0.90;0.80;;;;;;;;;;5094516;28;20227;-58
2023/05/09 13:11:31;;;;;;;0.85;0.70;;;;;;;;;;5094468;28;20272;-57
2023/05/09 13:14:01;;;;;;;1.25;0.98;;;;;;;;;;5093804;28;20229;-57
2023/05/09 13:16:28;;;;;;;1.00;0.90;;;;;;;;;;5093613;27;20269;-58
2023/05/09 13:18:55;;;;;;;1.42;0.90;;;;;;;;;;5093281;28;20241;-58
2023/05/09 13:21:22;;;;;;;0.70;0.70;;;;;;;;;;5093881;28;20222;-58
2023/05/09 13:23:50;;;;;;;1.73;0.88;;;;;;;;;;5094019;28;20241;-59
2023/05/09 13:26:17;;;;;;;1.40;0.90;;;;;;;;;;5094828;28;20209;-59
2023/05/09 13:28:44;;;;;;;1.15;0.88;;;;;;;;;;5094888;28;20203;-58
2023/05/09 13:31:11;;;;;;;1.15;1.00;;;;;;;;;;5094697;28;20202;-59
2023/05/09 13:33:38;;;;;;;1.13;0.60;;;;;;;;;;5094639;28;20203;-58
2023/05/09 13:36:06;;;;;;;0.60;0.60;;;;;;;;;;5094556;28;20219;-59
2023/05/09 13:38:37;;;;;;;0.52;0.52;;;;;;;;;;5094510;28;20202;-58
2023/05/09 13:41:05;;;;;;;1.60;0.90;;;;;;;;;;5094368;28;20288;-58
2023/05/09 13:43:33;;;;;;;1.33;1.00;;;;;;;;;;5089201;28;20203;-58
2023/05/09 13:46:00;;;;;;;1.58;1.05;;;;;;;;;;5084632;28;20221;-57
2023/05/09 13:48:27;;;;;;;1.63;0.82;;;;;;;;;;5085976;28;20203;-56
2023/05/09 13:50:56;;;;;;;1.00;0.70;;;;;;;;;;5087067;28;20206;-58
2023/05/09 13:53:23;;;;;;;3.05;0.80;;;;;;;;;;5089718;28;20206;-56
2023/05/09 13:55:50;;;;;;;1.15;0.80;;;;;;;;;;5094262;28;20335;-57
2023/05/09 13:58:18;;;;;;;1.20;0.88;;;;;;;;;;5090629;28;20203;-58
2023/05/09 14:00:45;;;;;;;1.52;0.75;;;;;;;;;;5086480;28;20723;-57
2023/05/09 14:03:12;;;;;;;0.70;0.70;;;;;;;;;;5077755;28;20203;-58
2023/05/09 14:05:39;;;;;;;1.60;1.17;;;;;;;;;;5085703;28;20264;-58
2023/05/09 14:08:06;;;;;;;1.67;0.90;;;;;;;;;;5090772;28;20268;-59
2023/05/09 14:10:33;;;;;;;1.50;0.93;;;;;;;;;;5091726;28;20302;-59
2023/05/09 14:13:01;;;;;;;0.57;0.57;;;;;;;;;;5089061;28;20577;-58
2023/05/09 14:15:28;;;;;;;1.25;0.70;;;;;;;;;;5075386;28;20329;-59
2023/05/09 14:17:56;;;;;;;2.05;0.90;;;;;;;;;;5087566;28;20227;-58
2023/05/09 14:20:23;;;;;;;1.98;0.80;;;;;;;;;;5089657;28;20218;-59
2023/05/09 14:22:50;;;;;;;1.17;0.60;;;;;;;;;;5091325;28;20575;-59
2023/05/09 14:25:17;;;;;;;0.77;0.77;;;;;;;;;;5089589;28;20215;-58
2023/05/09 14:27:45;;;;;;;1.00;0.80;;;;;;;;;;5081786;28;20228;-58
2023/05/09 14:30:12;;;;;;;1.55;0.95;;;;;;;;;;5071984;28;20234;-58
2023/05/09 14:32:39;;;;;;;0.70;0.70;;;;;;;;;;5073062;28;20233;-59
2023/05/09 14:35:07;;;;;;;0.95;0.80;;;;;;;;;;5072503;28;20229;-57
2023/05/09 14:37:35;;;;;;;1.13;0.90;;;;;;;;;;5072945;28;20228;-59
2023/05/09 14:40:04;;;;;;;1.00;0.88;;;;;;;;;;5072380;28;20242;-59
2023/05/09 14:42:31;;;;;;;1.05;0.95;;;;;;;;;;5072849;28;20277;-59
2023/05/09 14:44:58;;;;;;;1.50;0.90;;;;;;;;;;5072750;28;20231;-59
2023/05/09 14:47:26;;;;;;;2.90;1.05;;;;;;;;;;5073102;28;20704;-58
2023/05/09 14:49:53;;;;;;;0.98;0.73;;;;;;;;;;5081980;28;20754;-59
2023/05/09 14:52:20;;;;;;;0.75;0.75;;;;;;;;;;5092924;28;20237;-58
2023/05/09 14:54:47;;;;;;;0.80;0.70;;;;;;;;;;5092639;28;20687;-58